sensor_id;sensor_type;location;lat;lon;timestamp;P1;durP1;ratioP1;P2;durP2;ratioP2
54705;SDS011;40603;48.774;8.916;2023-04-25T00:01:53;2.25;;;1.42;;
54705;SDS011;40603;48.774;8.916;2023-04-25T00:04:18;3.60;;;1.40;;
54705;SDS011;40603;48.774;8.916;2023-04-25T00:06:43;1.80;;;1.17;;
54705;SDS011;40603;48.774;8.916;2023-04-25T00:09:09;2.15;;;1.45;;
54705;SDS011;40603;48.774;8.916;2023-04-25T00:11:35;1.92;;;1.33;;
54705;SDS011;40603;48.774;8.916;2023-04-25T00:14:01;5.18;;;1.73;;
54705;SDS011;40603;48.774;8.916;2023-04-25T00:16:28;2.53;;;1.40;;
54705;SDS011;40603;48.774;8.916;2023-04-25T00:18:54;2.50;;;1.80;;
54705;SDS011;40603;48.774;8.916;2023-04-25T00:21:20;2.58;;;1.30;;
54705;SDS011;40603;48.774;8.916;2023-04-25T00:23:45;3.08;;;1.40;;
54705;SDS011;40603;48.774;8.916;2023-04-25T00:26:11;2.15;;;1.42;;
54705;SDS011;40603;48.774;8.916;2023-04-25T00:28:37;3.60;;;1.73;;
54705;SDS011;40603;48.774;8.916;2023-04-25T00:31:02;4.68;;;1.70;;
54705;SDS011;40603;48.774;8.916;2023-04-25T00:33:28;3.15;;;1.80;;
54705;SDS011;40603;48.774;8.916;2023-04-25T00:35:53;6.25;;;2.17;;
54705;SDS011;40603;48.774;8.916;2023-04-25T00:38:18;3.88;;;1.55;;
54705;SDS011;40603;48.774;8.916;2023-04-25T00:40:44;7.38;;;2.15;;
54705;SDS011;40603;48.774;8.916;2023-04-25T00:43:09;2.90;;;1.73;;
54705;SDS011;40603;48.774;8.916;2023-04-25T00:45:34;4.60;;;1.90;;
54705;SDS011;40603;48.774;8.916;2023-04-25T00:48:03;2.33;;;1.70;;
54705;SDS011;40603;48.774;8.916;2023-04-25T00:50:29;2.00;;;1.73;;
54705;SDS011;40603;48.774;8.916;2023-04-25T00:52:54;1.60;;;1.50;;
54705;SDS011;40603;48.774;8.916;2023-04-25T00:55:20;2.63;;;1.98;;
54705;SDS011;40603;48.774;8.916;2023-04-25T00:57:45;2.65;;;1.83;;
54705;SDS011;40603;48.774;8.916;2023-04-25T01:00:11;3.05;;;2.03;;
54705;SDS011;40603;48.774;8.916;2023-04-25T01:02:39;2.25;;;1.77;;
54705;SDS011;40603;48.774;8.916;2023-04-25T01:05:05;2.95;;;2.00;;
54705;SDS011;40603;48.774;8.916;2023-04-25T01:07:30;4.45;;;1.88;;
54705;SDS011;40603;48.774;8.916;2023-04-25T01:09:55;3.55;;;1.67;;
54705;SDS011;40603;48.774;8.916;2023-04-25T01:12:21;4.78;;;1.75;;
54705;SDS011;40603;48.774;8.916;2023-04-25T01:14:47;4.60;;;1.90;;
54705;SDS011;40603;48.774;8.916;2023-04-25T01:17:12;2.70;;;1.70;;
54705;SDS011;40603;48.774;8.916;2023-04-25T01:19:38;4.20;;;1.65;;
54705;SDS011;40603;48.774;8.916;2023-04-25T01:22:03;2.70;;;1.90;;
54705;SDS011;40603;48.774;8.916;2023-04-25T01:24:29;2.97;;;1.65;;
54705;SDS011;40603;48.774;8.916;2023-04-25T01:26:55;4.90;;;2.03;;
54705;SDS011;40603;48.774;8.916;2023-04-25T01:29:21;4.65;;;1.90;;
54705;SDS011;40603;48.774;8.916;2023-04-25T01:31:47;4.57;;;2.10;;
54705;SDS011;40603;48.774;8.916;2023-04-25T01:34:13;5.07;;;2.20;;
54705;SDS011;40603;48.774;8.916;2023-04-25T01:36:38;3.47;;;2.20;;
54705;SDS011;40603;48.774;8.916;2023-04-25T01:39:05;1.95;;;1.80;;
54705;SDS011;40603;48.774;8.916;2023-04-25T01:41:30;2.30;;;1.90;;
54705;SDS011;40603;48.774;8.916;2023-04-25T01:43:56;3.10;;;1.98;;
54705;SDS011;40603;48.774;8.916;2023-04-25T01:46:21;3.47;;;1.95;;
54705;SDS011;40603;48.774;8.916;2023-04-25T01:48:47;3.17;;;1.70;;
54705;SDS011;40603;48.774;8.916;2023-04-25T01:51:12;4.90;;;1.70;;
54705;SDS011;40603;48.774;8.916;2023-04-25T01:53:38;3.47;;;2.05;;
54705;SDS011;40603;48.774;8.916;2023-04-25T01:56:04;3.83;;;1.80;;
54705;SDS011;40603;48.774;8.916;2023-04-25T01:58:29;4.88;;;2.35;;
54705;SDS011;40603;48.774;8.916;2023-04-25T02:00:55;6.40;;;2.42;;
54705;SDS011;40603;48.774;8.916;2023-04-25T02:03:20;4.05;;;2.00;;
54705;SDS011;40603;48.774;8.916;2023-04-25T02:05:45;2.92;;;1.90;;
54705;SDS011;40603;48.774;8.916;2023-04-25T02:08:11;5.50;;;2.10;;
54705;SDS011;40603;48.774;8.916;2023-04-25T02:10:36;3.08;;;1.92;;
54705;SDS011;40603;48.774;8.916;2023-04-25T02:13:02;4.97;;;1.65;;
54705;SDS011;40603;48.774;8.916;2023-04-25T02:15:27;3.38;;;2.28;;
54705;SDS011;40603;48.774;8.916;2023-04-25T02:17:53;5.50;;;2.47;;
54705;SDS011;40603;48.774;8.916;2023-04-25T02:20:19;4.13;;;2.30;;
54705;SDS011;40603;48.774;8.916;2023-04-25T02:22:46;6.05;;;2.10;;
54705;SDS011;40603;48.774;8.916;2023-04-25T02:25:11;3.03;;;2.03;;
54705;SDS011;40603;48.774;8.916;2023-04-25T02:27:36;4.72;;;2.42;;
54705;SDS011;40603;48.774;8.916;2023-04-25T02:30:02;3.28;;;2.22;;
54705;SDS011;40603;48.774;8.916;2023-04-25T02:32:28;5.25;;;2.15;;
54705;SDS011;40603;48.774;8.916;2023-04-25T02:34:53;3.05;;;2.17;;
54705;SDS011;40603;48.774;8.916;2023-04-25T02:37:19;3.13;;;2.17;;
54705;SDS011;40603;48.774;8.916;2023-04-25T02:39:44;4.93;;;2.53;;
54705;SDS011;40603;48.774;8.916;2023-04-25T02:42:10;3.33;;;2.10;;
54705;SDS011;40603;48.774;8.916;2023-04-25T02:44:35;5.32;;;2.35;;
54705;SDS011;40603;48.774;8.916;2023-04-25T02:47:01;5.90;;;2.45;;
54705;SDS011;40603;48.774;8.916;2023-04-25T02:49:26;4.80;;;2.40;;
54705;SDS011;40603;48.774;8.916;2023-04-25T02:51:51;2.65;;;2.30;;
54705;SDS011;40603;48.774;8.916;2023-04-25T02:54:16;3.40;;;2.35;;
54705;SDS011;40603;48.774;8.916;2023-04-25T02:56:42;5.13;;;2.42;;
54705;SDS011;40603;48.774;8.916;2023-04-25T02:59:07;3.80;;;2.17;;
54705;SDS011;40603;48.774;8.916;2023-04-25T03:01:32;4.68;;;2.35;;
54705;SDS011;40603;48.774;8.916;2023-04-25T03:03:58;3.22;;;2.08;;
54705;SDS011;40603;48.774;8.916;2023-04-25T03:06:23;2.88;;;2.20;;
54705;SDS011;40603;48.774;8.916;2023-04-25T03:08:48;11.70;;;2.53;;
54705;SDS011;40603;48.774;8.916;2023-04-25T03:11:13;3.00;;;1.90;;
54705;SDS011;40603;48.774;8.916;2023-04-25T03:13:39;2.55;;;1.98;;
54705;SDS011;40603;48.774;8.916;2023-04-25T03:16:04;3.17;;;2.05;;
54705;SDS011;40603;48.774;8.916;2023-04-25T03:18:30;4.60;;;2.30;;
54705;SDS011;40603;48.774;8.916;2023-04-25T03:20:55;3.58;;;2.45;;
54705;SDS011;40603;48.774;8.916;2023-04-25T03:23:20;6.80;;;2.67;;
54705;SDS011;40603;48.774;8.916;2023-04-25T03:25:46;6.85;;;2.72;;
54705;SDS011;40603;48.774;8.916;2023-04-25T03:28:11;5.35;;;2.60;;
54705;SDS011;40603;48.774;8.916;2023-04-25T03:30:36;4.28;;;2.17;;
54705;SDS011;40603;48.774;8.916;2023-04-25T03:33:02;3.28;;;2.22;;
54705;SDS011;40603;48.774;8.916;2023-04-25T03:35:27;5.72;;;2.35;;
54705;SDS011;40603;48.774;8.916;2023-04-25T03:37:52;2.97;;;2.35;;
54705;SDS011;40603;48.774;8.916;2023-04-25T03:40:18;4.20;;;2.67;;
54705;SDS011;40603;48.774;8.916;2023-04-25T03:42:43;4.60;;;2.58;;
54705;SDS011;40603;48.774;8.916;2023-04-25T03:45:08;3.42;;;2.22;;
54705;SDS011;40603;48.774;8.916;2023-04-25T03:47:34;3.13;;;2.20;;
54705;SDS011;40603;48.774;8.916;2023-04-25T03:49:59;3.30;;;2.33;;
54705;SDS011;40603;48.774;8.916;2023-04-25T03:52:26;4.55;;;2.58;;
54705;SDS011;40603;48.774;8.916;2023-04-25T03:54:51;3.53;;;2.17;;
54705;SDS011;40603;48.774;8.916;2023-04-25T03:57:17;5.97;;;2.30;;
54705;SDS011;40603;48.774;8.916;2023-04-25T03:59:42;5.28;;;2.53;;
54705;SDS011;40603;48.774;8.916;2023-04-25T04:02:07;3.70;;;2.20;;
54705;SDS011;40603;48.774;8.916;2023-04-25T04:04:33;2.92;;;2.35;;
54705;SDS011;40603;48.774;8.916;2023-04-25T04:06:58;3.25;;;2.10;;
54705;SDS011;40603;48.774;8.916;2023-04-25T04:09:23;4.50;;;2.47;;
54705;SDS011;40603;48.774;8.916;2023-04-25T04:11:49;3.58;;;2.40;;
54705;SDS011;40603;48.774;8.916;2023-04-25T04:14:14;6.50;;;2.50;;
54705;SDS011;40603;48.774;8.916;2023-04-25T04:16:39;3.22;;;2.10;;
54705;SDS011;40603;48.774;8.916;2023-04-25T04:19:05;3.35;;;2.30;;
54705;SDS011;40603;48.774;8.916;2023-04-25T04:21:30;6.85;;;2.08;;
54705;SDS011;40603;48.774;8.916;2023-04-25T04:23:56;2.83;;;2.13;;
54705;SDS011;40603;48.774;8.916;2023-04-25T04:26:22;5.97;;;2.13;;
54705;SDS011;40603;48.774;8.916;2023-04-25T04:28:48;3.53;;;2.15;;
54705;SDS011;40603;48.774;8.916;2023-04-25T04:31:15;5.15;;;2.50;;
54705;SDS011;40603;48.774;8.916;2023-04-25T04:33:41;4.40;;;2.75;;
54705;SDS011;40603;48.774;8.916;2023-04-25T04:36:07;4.60;;;2.08;;
54705;SDS011;40603;48.774;8.916;2023-04-25T04:38:32;3.58;;;2.22;;
54705;SDS011;40603;48.774;8.916;2023-04-25T04:40:58;3.30;;;2.50;;
54705;SDS011;40603;48.774;8.916;2023-04-25T04:43:23;4.72;;;2.95;;
54705;SDS011;40603;48.774;8.916;2023-04-25T04:45:49;7.50;;;2.42;;
54705;SDS011;40603;48.774;8.916;2023-04-25T04:48:15;5.28;;;2.38;;
54705;SDS011;40603;48.774;8.916;2023-04-25T04:50:42;2.88;;;2.25;;
54705;SDS011;40603;48.774;8.916;2023-04-25T04:53:09;6.35;;;3.03;;
54705;SDS011;40603;48.774;8.916;2023-04-25T04:55:35;8.15;;;3.33;;
54705;SDS011;40603;48.774;8.916;2023-04-25T04:58:00;6.35;;;3.13;;
54705;SDS011;40603;48.774;8.916;2023-04-25T05:00:26;6.40;;;2.92;;
54705;SDS011;40603;48.774;8.916;2023-04-25T05:02:52;5.05;;;2.85;;
54705;SDS011;40603;48.774;8.916;2023-04-25T05:05:17;7.07;;;3.05;;
54705;SDS011;40603;48.774;8.916;2023-04-25T05:07:42;4.15;;;2.60;;
54705;SDS011;40603;48.774;8.916;2023-04-25T05:10:08;4.32;;;2.75;;
54705;SDS011;40603;48.774;8.916;2023-04-25T05:12:33;4.05;;;3.05;;
54705;SDS011;40603;48.774;8.916;2023-04-25T05:14:58;3.63;;;2.83;;
54705;SDS011;40603;48.774;8.916;2023-04-25T05:17:24;4.28;;;2.35;;
54705;SDS011;40603;48.774;8.916;2023-04-25T05:19:49;3.72;;;3.03;;
54705;SDS011;40603;48.774;8.916;2023-04-25T05:22:14;4.85;;;3.10;;
54705;SDS011;40603;48.774;8.916;2023-04-25T05:24:40;4.05;;;2.78;;
54705;SDS011;40603;48.774;8.916;2023-04-25T05:27:05;3.55;;;2.83;;
54705;SDS011;40603;48.774;8.916;2023-04-25T05:29:31;5.85;;;2.80;;
54705;SDS011;40603;48.774;8.916;2023-04-25T05:31:56;3.15;;;2.63;;
54705;SDS011;40603;48.774;8.916;2023-04-25T05:34:21;4.10;;;2.50;;
54705;SDS011;40603;48.774;8.916;2023-04-25T05:36:47;3.13;;;2.60;;
54705;SDS011;40603;48.774;8.916;2023-04-25T05:39:14;3.08;;;2.38;;
54705;SDS011;40603;48.774;8.916;2023-04-25T05:41:40;4.45;;;2.58;;
54705;SDS011;40603;48.774;8.916;2023-04-25T05:44:05;3.47;;;2.53;;
54705;SDS011;40603;48.774;8.916;2023-04-25T05:46:31;3.60;;;2.72;;
54705;SDS011;40603;48.774;8.916;2023-04-25T05:48:56;3.97;;;2.50;;
54705;SDS011;40603;48.774;8.916;2023-04-25T05:51:21;6.28;;;2.25;;
54705;SDS011;40603;48.774;8.916;2023-04-25T05:53:47;2.88;;;2.63;;
54705;SDS011;40603;48.774;8.916;2023-04-25T05:56:12;3.65;;;2.60;;
54705;SDS011;40603;48.774;8.916;2023-04-25T05:58:38;3.13;;;2.83;;
54705;SDS011;40603;48.774;8.916;2023-04-25T06:01:03;7.20;;;2.97;;
54705;SDS011;40603;48.774;8.916;2023-04-25T06:03:28;3.85;;;3.42;;
54705;SDS011;40603;48.774;8.916;2023-04-25T06:05:54;4.65;;;3.30;;
54705;SDS011;40603;48.774;8.916;2023-04-25T06:08:20;4.47;;;3.38;;
54705;SDS011;40603;48.774;8.916;2023-04-25T06:10:45;7.57;;;3.40;;
54705;SDS011;40603;48.774;8.916;2023-04-25T06:13:10;5.43;;;3.40;;
54705;SDS011;40603;48.774;8.916;2023-04-25T06:15:36;7.05;;;3.97;;
54705;SDS011;40603;48.774;8.916;2023-04-25T06:18:01;9.88;;;3.53;;
54705;SDS011;40603;48.774;8.916;2023-04-25T06:20:26;7.43;;;3.30;;
54705;SDS011;40603;48.774;8.916;2023-04-25T06:22:52;4.78;;;3.53;;
54705;SDS011;40603;48.774;8.916;2023-04-25T06:25:17;4.47;;;3.47;;
54705;SDS011;40603;48.774;8.916;2023-04-25T06:27:42;5.63;;;3.40;;
54705;SDS011;40603;48.774;8.916;2023-04-25T06:30:08;3.28;;;2.97;;
54705;SDS011;40603;48.774;8.916;2023-04-25T06:32:34;4.82;;;3.40;;
54705;SDS011;40603;48.774;8.916;2023-04-25T06:35:00;4.40;;;3.00;;
54705;SDS011;40603;48.774;8.916;2023-04-25T06:37:25;5.90;;;3.63;;
54705;SDS011;40603;48.774;8.916;2023-04-25T06:39:51;4.45;;;3.00;;
54705;SDS011;40603;48.774;8.916;2023-04-25T06:42:16;3.65;;;3.05;;
54705;SDS011;40603;48.774;8.916;2023-04-25T06:44:41;3.50;;;2.80;;
54705;SDS011;40603;48.774;8.916;2023-04-25T06:47:07;4.80;;;3.20;;
54705;SDS011;40603;48.774;8.916;2023-04-25T06:49:32;4.30;;;3.00;;
54705;SDS011;40603;48.774;8.916;2023-04-25T06:51:57;7.03;;;3.30;;
54705;SDS011;40603;48.774;8.916;2023-04-25T06:54:22;4.28;;;3.03;;
54705;SDS011;40603;48.774;8.916;2023-04-25T06:56:49;9.32;;;3.30;;
54705;SDS011;40603;48.774;8.916;2023-04-25T06:59:15;3.53;;;2.95;;
54705;SDS011;40603;48.774;8.916;2023-04-25T07:01:40;6.28;;;2.95;;
54705;SDS011;40603;48.774;8.916;2023-04-25T07:04:06;4.15;;;3.17;;
54705;SDS011;40603;48.774;8.916;2023-04-25T07:06:31;4.18;;;3.08;;
54705;SDS011;40603;48.774;8.916;2023-04-25T07:08:57;4.15;;;3.08;;
54705;SDS011;40603;48.774;8.916;2023-04-25T07:11:22;4.80;;;3.15;;
54705;SDS011;40603;48.774;8.916;2023-04-25T07:13:47;7.28;;;4.03;;
54705;SDS011;40603;48.774;8.916;2023-04-25T07:16:12;3.60;;;2.88;;
54705;SDS011;40603;48.774;8.916;2023-04-25T07:18:38;3.95;;;3.00;;
54705;SDS011;40603;48.774;8.916;2023-04-25T07:21:03;5.72;;;3.00;;
54705;SDS011;40603;48.774;8.916;2023-04-25T07:23:28;3.35;;;2.67;;
54705;SDS011;40603;48.774;8.916;2023-04-25T07:25:55;5.35;;;3.17;;
54705;SDS011;40603;48.774;8.916;2023-04-25T07:28:20;6.72;;;3.38;;
54705;SDS011;40603;48.774;8.916;2023-04-25T07:30:46;4.03;;;3.08;;
54705;SDS011;40603;48.774;8.916;2023-04-25T07:33:11;4.85;;;3.08;;
54705;SDS011;40603;48.774;8.916;2023-04-25T07:35:36;5.28;;;2.90;;
54705;SDS011;40603;48.774;8.916;2023-04-25T07:38:02;4.22;;;3.60;;
54705;SDS011;40603;48.774;8.916;2023-04-25T07:40:27;4.35;;;3.45;;
54705;SDS011;40603;48.774;8.916;2023-04-25T07:42:53;5.10;;;3.53;;
54705;SDS011;40603;48.774;8.916;2023-04-25T07:45:18;5.40;;;3.80;;
54705;SDS011;40603;48.774;8.916;2023-04-25T07:47:43;4.78;;;3.50;;
54705;SDS011;40603;48.774;8.916;2023-04-25T07:50:09;5.72;;;3.25;;
54705;SDS011;40603;48.774;8.916;2023-04-25T07:52:35;4.43;;;3.35;;
54705;SDS011;40603;48.774;8.916;2023-04-25T07:55:01;4.10;;;3.58;;
54705;SDS011;40603;48.774;8.916;2023-04-25T07:57:26;4.30;;;3.50;;
54705;SDS011;40603;48.774;8.916;2023-04-25T07:59:51;6.20;;;3.50;;
54705;SDS011;40603;48.774;8.916;2023-04-25T08:02:17;5.20;;;3.28;;
54705;SDS011;40603;48.774;8.916;2023-04-25T08:04:42;4.45;;;3.33;;
54705;SDS011;40603;48.774;8.916;2023-04-25T08:07:08;6.47;;;2.90;;
54705;SDS011;40603;48.774;8.916;2023-04-25T08:09:33;6.75;;;3.35;;
54705;SDS011;40603;48.774;8.916;2023-04-25T08:12:00;5.00;;;3.05;;
54705;SDS011;40603;48.774;8.916;2023-04-25T08:14:26;5.68;;;3.17;;
54705;SDS011;40603;48.774;8.916;2023-04-25T08:16:52;7.53;;;3.50;;
54705;SDS011;40603;48.774;8.916;2023-04-25T08:19:17;3.88;;;3.05;;
54705;SDS011;40603;48.774;8.916;2023-04-25T08:21:42;5.68;;;3.22;;
54705;SDS011;40603;48.774;8.916;2023-04-25T08:24:08;3.70;;;3.00;;
54705;SDS011;40603;48.774;8.916;2023-04-25T08:26:33;3.88;;;3.10;;
54705;SDS011;40603;48.774;8.916;2023-04-25T08:28:59;6.25;;;3.88;;
54705;SDS011;40603;48.774;8.916;2023-04-25T08:31:24;6.07;;;4.10;;
54705;SDS011;40603;48.774;8.916;2023-04-25T08:33:50;5.95;;;3.25;;
54705;SDS011;40603;48.774;8.916;2023-04-25T08:36:16;6.40;;;3.40;;
54705;SDS011;40603;48.774;8.916;2023-04-25T08:38:42;4.90;;;3.50;;
54705;SDS011;40603;48.774;8.916;2023-04-25T08:41:07;6.38;;;3.90;;
54705;SDS011;40603;48.774;8.916;2023-04-25T08:43:33;7.47;;;3.97;;
54705;SDS011;40603;48.774;8.916;2023-04-25T08:46:00;5.20;;;4.20;;
54705;SDS011;40603;48.774;8.916;2023-04-25T08:48:27;4.53;;;3.30;;
54705;SDS011;40603;48.774;8.916;2023-04-25T08:50:53;5.55;;;4.13;;
54705;SDS011;40603;48.774;8.916;2023-04-25T08:53:21;5.50;;;3.85;;
54705;SDS011;40603;48.774;8.916;2023-04-25T08:55:57;4.88;;;3.55;;
54705;SDS011;40603;48.774;8.916;2023-04-25T08:58:23;5.30;;;3.63;;
54705;SDS011;40603;48.774;8.916;2023-04-25T09:00:49;5.35;;;3.53;;
54705;SDS011;40603;48.774;8.916;2023-04-25T09:03:15;6.03;;;4.15;;
54705;SDS011;40603;48.774;8.916;2023-04-25T09:05:40;7.40;;;3.42;;
54705;SDS011;40603;48.774;8.916;2023-04-25T09:08:06;4.82;;;3.30;;
54705;SDS011;40603;48.774;8.916;2023-04-25T09:10:32;3.72;;;3.00;;
54705;SDS011;40603;48.774;8.916;2023-04-25T09:13:04;7.22;;;3.25;;
54705;SDS011;40603;48.774;8.916;2023-04-25T09:15:31;6.30;;;2.97;;
54705;SDS011;40603;48.774;8.916;2023-04-25T09:17:57;2.55;;;2.00;;
54705;SDS011;40603;48.774;8.916;2023-04-25T09:20:23;1.30;;;1.20;;
54705;SDS011;40603;48.774;8.916;2023-04-25T09:22:49;1.58;;;1.38;;
54705;SDS011;40603;48.774;8.916;2023-04-25T09:25:15;2.00;;;1.20;;
54705;SDS011;40603;48.774;8.916;2023-04-25T09:27:50;1.65;;;1.00;;
54705;SDS011;40603;48.774;8.916;2023-04-25T09:30:17;0.75;;;0.70;;
54705;SDS011;40603;48.774;8.916;2023-04-25T09:32:42;1.40;;;0.90;;
54705;SDS011;40603;48.774;8.916;2023-04-25T09:35:08;0.98;;;0.90;;
54705;SDS011;40603;48.774;8.916;2023-04-25T09:37:34;1.25;;;1.10;;
54705;SDS011;40603;48.774;8.916;2023-04-25T09:40:00;1.60;;;1.02;;
54705;SDS011;40603;48.774;8.916;2023-04-25T09:44:57;1.00;;;0.90;;
54705;SDS011;40603;48.774;8.916;2023-04-25T09:47:26;1.38;;;0.70;;
54705;SDS011;40603;48.774;8.916;2023-04-25T09:49:53;0.77;;;0.73;;
54705;SDS011;40603;48.774;8.916;2023-04-25T09:52:20;1.23;;;0.80;;
54705;SDS011;40603;48.774;8.916;2023-04-25T09:54:47;1.27;;;0.90;;
54705;SDS011;40603;48.774;8.916;2023-04-25T09:57:14;2.30;;;0.70;;
54705;SDS011;40603;48.774;8.916;2023-04-25T09:59:47;2.25;;;0.77;;
54705;SDS011;40603;48.774;8.916;2023-04-25T10:02:17;0.88;;;0.70;;
54705;SDS011;40603;48.774;8.916;2023-04-25T10:04:53;1.42;;;0.70;;
54705;SDS011;40603;48.774;8.916;2023-04-25T10:07:24;2.50;;;0.65;;
54705;SDS011;40603;48.774;8.916;2023-04-25T10:09:55;0.85;;;0.60;;
54705;SDS011;40603;48.774;8.916;2023-04-25T10:12:27;3.88;;;0.88;;
54705;SDS011;40603;48.774;8.916;2023-04-25T10:14:53;2.05;;;0.70;;
54705;SDS011;40603;48.774;8.916;2023-04-25T10:17:19;0.70;;;0.55;;
54705;SDS011;40603;48.774;8.916;2023-04-25T10:19:45;0.70;;;0.70;;
54705;SDS011;40603;48.774;8.916;2023-04-25T10:22:13;0.40;;;0.40;;
54705;SDS011;40603;48.774;8.916;2023-04-25T10:24:42;0.40;;;0.40;;
54705;SDS011;40603;48.774;8.916;2023-04-25T10:27:08;0.90;;;0.90;;
54705;SDS011;40603;48.774;8.916;2023-04-25T10:29:34;2.38;;;0.60;;
54705;SDS011;40603;48.774;8.916;2023-04-25T10:32:00;0.40;;;0.40;;
54705;SDS011;40603;48.774;8.916;2023-04-25T10:34:42;0.68;;;0.60;;
54705;SDS011;40603;48.774;8.916;2023-04-25T10:37:12;1.00;;;0.63;;
54705;SDS011;40603;48.774;8.916;2023-04-25T10:39:39;0.85;;;0.63;;
54705;SDS011;40603;48.774;8.916;2023-04-25T10:42:06;1.92;;;0.90;;
54705;SDS011;40603;48.774;8.916;2023-04-25T10:44:32;1.17;;;0.80;;
54705;SDS011;40603;48.774;8.916;2023-04-25T10:46:59;0.88;;;0.75;;
54705;SDS011;40603;48.774;8.916;2023-04-25T10:49:32;2.17;;;1.83;;
54705;SDS011;40603;48.774;8.916;2023-04-25T10:52:18;3.00;;;2.17;;
54705;SDS011;40603;48.774;8.916;2023-04-25T10:57:29;3.17;;;2.60;;
54705;SDS011;40603;48.774;8.916;2023-04-25T11:00:07;4.07;;;2.63;;
54705;SDS011;40603;48.774;8.916;2023-04-25T11:03:01;2.67;;;2.33;;
54705;SDS011;40603;48.774;8.916;2023-04-25T11:08:01;2.63;;;2.10;;
54705;SDS011;40603;48.774;8.916;2023-04-25T11:10:28;2.47;;;2.28;;
54705;SDS011;40603;48.774;8.916;2023-04-25T11:12:55;2.65;;;2.35;;
54705;SDS011;40603;48.774;8.916;2023-04-25T11:15:21;2.97;;;2.53;;
54705;SDS011;40603;48.774;8.916;2023-04-25T11:17:46;3.30;;;2.40;;
54705;SDS011;40603;48.774;8.916;2023-04-25T11:20:12;2.70;;;2.20;;
54705;SDS011;40603;48.774;8.916;2023-04-25T11:22:38;6.55;;;2.65;;
54705;SDS011;40603;48.774;8.916;2023-04-25T11:25:06;2.13;;;1.90;;
54705;SDS011;40603;48.774;8.916;2023-04-25T11:27:32;1.63;;;1.52;;
54705;SDS011;40603;48.774;8.916;2023-04-25T11:29:58;2.22;;;1.70;;
54705;SDS011;40603;48.774;8.916;2023-04-25T11:32:23;1.98;;;1.60;;
54705;SDS011;40603;48.774;8.916;2023-04-25T11:34:48;4.20;;;1.98;;
54705;SDS011;40603;48.774;8.916;2023-04-25T11:37:13;1.95;;;1.73;;
54705;SDS011;40603;48.774;8.916;2023-04-25T11:39:42;4.05;;;1.95;;
54705;SDS011;40603;48.774;8.916;2023-04-25T11:42:08;1.70;;;1.60;;
54705;SDS011;40603;48.774;8.916;2023-04-25T11:44:33;4.03;;;1.60;;
54705;SDS011;40603;48.774;8.916;2023-04-25T11:46:58;4.70;;;2.45;;
54705;SDS011;40603;48.774;8.916;2023-04-25T11:49:24;5.68;;;3.28;;
54705;SDS011;40603;48.774;8.916;2023-04-25T11:51:55;7.95;;;4.40;;
54705;SDS011;40603;48.774;8.916;2023-04-25T11:54:20;9.18;;;4.90;;
54705;SDS011;40603;48.774;8.916;2023-04-25T11:56:47;8.73;;;4.82;;
54705;SDS011;40603;48.774;8.916;2023-04-25T11:59:13;10.70;;;5.55;;
54705;SDS011;40603;48.774;8.916;2023-04-25T12:01:39;8.52;;;5.13;;
54705;SDS011;40603;48.774;8.916;2023-04-25T12:06:45;11.35;;;5.90;;
54705;SDS011;40603;48.774;8.916;2023-04-25T12:09:12;9.43;;;5.82;;
54705;SDS011;40603;48.774;8.916;2023-04-25T12:12:01;10.02;;;6.25;;
54705;SDS011;40603;48.774;8.916;2023-04-25T12:14:28;9.88;;;5.88;;
54705;SDS011;40603;48.774;8.916;2023-04-25T12:16:58;8.00;;;5.97;;
54705;SDS011;40603;48.774;8.916;2023-04-25T12:19:24;9.10;;;4.97;;
54705;SDS011;40603;48.774;8.916;2023-04-25T12:21:50;7.57;;;5.10;;
54705;SDS011;40603;48.774;8.916;2023-04-25T12:24:17;9.95;;;5.38;;
54705;SDS011;40603;48.774;8.916;2023-04-25T12:29:22;8.20;;;4.40;;
54705;SDS011;40603;48.774;8.916;2023-04-25T12:31:49;5.35;;;4.00;;
54705;SDS011;40603;48.774;8.916;2023-04-25T12:34:16;4.10;;;3.67;;
54705;SDS011;40603;48.774;8.916;2023-04-25T12:36:41;5.60;;;3.67;;
54705;SDS011;40603;48.774;8.916;2023-04-25T12:39:06;5.63;;;3.88;;
54705;SDS011;40603;48.774;8.916;2023-04-25T12:41:32;4.10;;;3.70;;
54705;SDS011;40603;48.774;8.916;2023-04-25T12:43:58;5.82;;;3.70;;
54705;SDS011;40603;48.774;8.916;2023-04-25T12:46:24;5.03;;;3.38;;
54705;SDS011;40603;48.774;8.916;2023-04-25T12:48:49;7.07;;;4.20;;
54705;SDS011;40603;48.774;8.916;2023-04-25T12:51:14;5.30;;;4.18;;
54705;SDS011;40603;48.774;8.916;2023-04-25T12:53:40;5.55;;;4.30;;
54705;SDS011;40603;48.774;8.916;2023-04-25T12:56:06;7.07;;;4.82;;
54705;SDS011;40603;48.774;8.916;2023-04-25T12:58:32;4.80;;;3.63;;
54705;SDS011;40603;48.774;8.916;2023-04-25T13:00:58;6.35;;;4.30;;
54705;SDS011;40603;48.774;8.916;2023-04-25T13:03:23;4.20;;;3.58;;
54705;SDS011;40603;48.774;8.916;2023-04-25T13:05:49;5.47;;;3.80;;
54705;SDS011;40603;48.774;8.916;2023-04-25T13:08:17;7.47;;;4.35;;
54705;SDS011;40603;48.774;8.916;2023-04-25T13:10:42;6.35;;;3.92;;
54705;SDS011;40603;48.774;8.916;2023-04-25T13:13:07;4.50;;;3.38;;
54705;SDS011;40603;48.774;8.916;2023-04-25T13:15:33;7.25;;;4.07;;
54705;SDS011;40603;48.774;8.916;2023-04-25T13:17:58;5.82;;;4.60;;
54705;SDS011;40603;48.774;8.916;2023-04-25T13:20:24;6.18;;;4.50;;
54705;SDS011;40603;48.774;8.916;2023-04-25T13:22:49;6.20;;;5.03;;
54705;SDS011;40603;48.774;8.916;2023-04-25T13:25:15;8.52;;;4.80;;
54705;SDS011;40603;48.774;8.916;2023-04-25T13:27:41;7.10;;;4.43;;
54705;SDS011;40603;48.774;8.916;2023-04-25T13:30:09;7.50;;;5.88;;
54705;SDS011;40603;48.774;8.916;2023-04-25T13:32:35;7.15;;;5.03;;
54705;SDS011;40603;48.774;8.916;2023-04-25T13:35:03;9.02;;;5.05;;
54705;SDS011;40603;48.774;8.916;2023-04-25T13:37:30;6.28;;;4.68;;
54705;SDS011;40603;48.774;8.916;2023-04-25T13:39:57;7.03;;;4.90;;
54705;SDS011;40603;48.774;8.916;2023-04-25T13:42:23;5.93;;;4.47;;
54705;SDS011;40603;48.774;8.916;2023-04-25T13:44:48;6.53;;;4.50;;
54705;SDS011;40603;48.774;8.916;2023-04-25T13:47:14;9.80;;;4.45;;
54705;SDS011;40603;48.774;8.916;2023-04-25T13:49:39;4.97;;;3.65;;
54705;SDS011;40603;48.774;8.916;2023-04-25T13:52:05;5.38;;;4.13;;
54705;SDS011;40603;48.774;8.916;2023-04-25T13:54:30;5.45;;;4.18;;
54705;SDS011;40603;48.774;8.916;2023-04-25T13:56:55;8.43;;;4.70;;
54705;SDS011;40603;48.774;8.916;2023-04-25T13:59:23;6.28;;;4.25;;
54705;SDS011;40603;48.774;8.916;2023-04-25T14:01:49;6.25;;;4.05;;
54705;SDS011;40603;48.774;8.916;2023-04-25T14:04:14;6.75;;;4.35;;
54705;SDS011;40603;48.774;8.916;2023-04-25T14:06:40;7.57;;;4.10;;
54705;SDS011;40603;48.774;8.916;2023-04-25T14:09:06;5.22;;;3.90;;
54705;SDS011;40603;48.774;8.916;2023-04-25T14:11:33;5.97;;;4.15;;
54705;SDS011;40603;48.774;8.916;2023-04-25T14:13:58;5.10;;;4.05;;
54705;SDS011;40603;48.774;8.916;2023-04-25T14:16:23;5.15;;;3.28;;
54705;SDS011;40603;48.774;8.916;2023-04-25T14:18:48;6.00;;;3.08;;
54705;SDS011;40603;48.774;8.916;2023-04-25T14:21:14;4.82;;;3.40;;
54705;SDS011;40603;48.774;8.916;2023-04-25T14:23:39;3.85;;;2.95;;
54705;SDS011;40603;48.774;8.916;2023-04-25T14:26:05;4.50;;;3.05;;
54705;SDS011;40603;48.774;8.916;2023-04-25T14:28:30;3.50;;;2.92;;
54705;SDS011;40603;48.774;8.916;2023-04-25T14:30:55;4.30;;;3.15;;
54705;SDS011;40603;48.774;8.916;2023-04-25T14:33:21;5.10;;;2.97;;
54705;SDS011;40603;48.774;8.916;2023-04-25T14:35:47;6.38;;;2.70;;
54705;SDS011;40603;48.774;8.916;2023-04-25T14:38:12;3.90;;;3.00;;
54705;SDS011;40603;48.774;8.916;2023-04-25T14:40:37;4.57;;;2.58;;
54705;SDS011;40603;48.774;8.916;2023-04-25T14:43:03;4.70;;;2.22;;
54705;SDS011;40603;48.774;8.916;2023-04-25T14:45:28;2.60;;;2.40;;
54705;SDS011;40603;48.774;8.916;2023-04-25T14:47:53;3.15;;;2.22;;
54705;SDS011;40603;48.774;8.916;2023-04-25T14:50:19;4.00;;;2.15;;
54705;SDS011;40603;48.774;8.916;2023-04-25T14:52:44;2.97;;;2.45;;
54705;SDS011;40603;48.774;8.916;2023-04-25T14:55:10;2.50;;;2.10;;